Terminal Aerodrome Forecast
Issued by NWS

Home | Current Version | Previous Version | Text Only | Print | Product List | Glossary On
Versions: 1 2 3 4 5 6 7 8 9 10 11 12 13 14
000
FTUS45 KABQ 240500 RRA
TAFLVS
TAF
KLVS 240540Z 2406/2506 32011KT P6SM FEW050 SCT080
     FM241700 26015G24KT P6SM SCT090 SCT150
     FM242200 31020G28KT P6SM SCT080 BKN140
     FM250030 35014KT P6SM SCT070 BKN120=

USA.gov is the U.S. government's official web portal to all federal, state and local government web resources and services.